createdAt,value
2023-05-05T00:00:39.879Z,64.35
2023-05-05T00:01:39.562Z,63.46
2023-05-05T00:02:39.695Z,61.25
2023-05-05T00:03:39.694Z,64.91
2023-05-05T00:04:40.769Z,65.63
2023-05-05T00:05:39.547Z,60.71
2023-05-05T00:06:39.535Z,64.58
2023-05-05T00:07:39.607Z,60.65
2023-05-05T00:08:39.512Z,57.57
2023-05-05T00:09:39.508Z,69.00
2023-05-05T00:10:39.502Z,56.68
2023-05-05T00:11:39.513Z,55.96
2023-05-05T00:12:39.614Z,60.11
2023-05-05T00:13:39.491Z,59.50
2023-05-05T00:14:39.483Z,54.86
2023-05-05T00:15:39.487Z,61.13
2023-05-05T00:16:39.502Z,60.13
2023-05-05T00:17:39.482Z,59.58
2023-05-05T00:18:39.430Z,58.58
2023-05-05T00:19:39.443Z,59.33
2023-05-05T00:20:39.451Z,55.63
2023-05-05T00:21:39.475Z,62.40
2023-05-05T00:22:39.451Z,55.69
2023-05-05T00:23:39.431Z,61.62
2023-05-05T00:24:39.436Z,54.52
2023-05-05T00:25:39.416Z,61.10
2023-05-05T00:26:39.396Z,62.63
2023-05-05T00:27:40.978Z,55.18
2023-05-05T00:28:40.398Z,63.52
2023-05-05T00:29:39.397Z,61.97
2023-05-05T00:30:39.401Z,55.08
2023-05-05T00:31:39.448Z,58.96
2023-05-05T00:32:39.439Z,60.52
2023-05-05T00:33:39.372Z,63.06
2023-05-05T00:34:39.352Z,60.41
2023-05-05T00:35:39.343Z,59.35
2023-05-05T00:36:39.325Z,57.42
2023-05-05T00:37:39.340Z,55.39
2023-05-05T00:38:39.361Z,56.65
2023-05-05T00:39:39.314Z,62.17
2023-05-05T00:40:39.311Z,57.53
2023-05-05T00:41:39.307Z,56.54
2023-05-05T00:42:39.305Z,57.08
2023-05-05T00:43:39.350Z,56.98
2023-05-05T00:44:39.316Z,63.48
2023-05-05T00:45:39.289Z,55.81
2023-05-05T00:46:39.312Z,58.67
2023-05-05T00:47:39.306Z,55.64
2023-05-05T00:48:39.264Z,55.97
2023-05-05T00:49:39.420Z,60.71
2023-05-05T00:50:39.252Z,55.92
2023-05-05T00:51:39.275Z,57.54
2023-05-05T00:52:39.256Z,57.80
2023-05-05T00:53:39.243Z,56.87
2023-05-05T00:54:39.241Z,56.25
2023-05-05T00:55:39.217Z,59.57
2023-05-05T00:56:39.260Z,59.85
2023-05-05T00:57:39.208Z,63.99
2023-05-05T00:58:39.197Z,58.95
2023-05-05T00:59:39.206Z,58.27
2023-05-05T01:00:39.217Z,57.82
2023-05-05T01:01:39.231Z,56.81
2023-05-05T01:02:39.266Z,62.64
2023-05-05T01:03:39.215Z,58.59
2023-05-05T01:04:39.178Z,53.99
2023-05-05T01:05:39.241Z,54.96
2023-05-05T01:06:39.193Z,55.91
2023-05-05T01:07:39.252Z,63.19
2023-05-05T01:08:39.988Z,59.16
2023-05-05T01:09:39.156Z,55.64
2023-05-05T01:10:39.179Z,67.75
2023-05-05T01:11:39.196Z,60.09
2023-05-05T01:12:39.144Z,54.96
2023-05-05T01:13:39.120Z,60.01
2023-05-05T01:14:39.121Z,59.97
2023-05-05T01:15:39.119Z,61.28
2023-05-05T01:16:39.145Z,57.50
2023-05-05T01:17:39.136Z,61.88
2023-05-05T01:18:39.092Z,61.91
2023-05-05T01:19:39.102Z,66.89
2023-05-05T01:20:39.097Z,63.72
2023-05-05T01:21:39.106Z,60.53
2023-05-05T01:22:39.072Z,61.72
2023-05-05T01:23:39.099Z,58.06
2023-05-05T01:24:39.053Z,58.67
2023-05-05T01:25:39.068Z,60.44
2023-05-05T01:26:39.045Z,58.10
2023-05-05T01:27:39.064Z,59.56
2023-05-05T01:28:39.060Z,61.56
2023-05-05T01:29:39.033Z,61.50
2023-05-05T01:30:39.084Z,61.47
2023-05-05T01:31:39.136Z,60.69
2023-05-05T01:32:39.029Z,61.33
2023-05-05T01:33:39.013Z,63.23
2023-05-05T01:34:39.023Z,66.51
2023-05-05T01:35:38.996Z,75.20
2023-05-05T01:36:39.020Z,68.86
2023-05-05T01:37:38.990Z,60.74
2023-05-05T01:38:38.963Z,64.95
2023-05-05T01:39:38.995Z,61.06
2023-05-05T01:40:38.981Z,61.01
2023-05-05T01:41:38.938Z,58.22
2023-05-05T01:42:38.958Z,66.23
2023-05-05T01:43:38.944Z,59.51
2023-05-05T01:44:38.957Z,61.34
2023-05-05T01:45:38.964Z,60.93
2023-05-05T01:46:38.922Z,62.37
2023-05-05T01:47:38.930Z,68.33
2023-05-05T01:48:40.354Z,60.98
2023-05-05T01:49:38.920Z,61.79
2023-05-05T01:50:38.914Z,62.37
2023-05-05T01:51:38.889Z,58.47
2023-05-05T01:52:38.867Z,63.42
2023-05-05T01:53:38.877Z,62.09
2023-05-05T01:54:38.923Z,66.24
2023-05-05T01:55:38.881Z,68.61
2023-05-05T01:56:38.866Z,59.04
2023-05-05T01:57:38.836Z,60.03
2023-05-05T01:58:38.845Z,62.54
2023-05-05T01:59:38.825Z,63.83
2023-05-05T02:00:38.879Z,64.45
2023-05-05T02:01:38.872Z,60.12
2023-05-05T02:02:38.882Z,59.81
2023-05-05T02:03:38.942Z,60.29
2023-05-05T02:04:38.807Z,65.10
2023-05-05T02:05:38.836Z,62.03
2023-05-05T02:07:11.219Z,60.71
2023-05-05T02:07:38.820Z,59.69
2023-05-05T02:09:12.214Z,62.29
2023-05-05T02:10:11.218Z,66.69
2023-05-05T02:10:38.798Z,61.45
2023-05-05T02:12:11.205Z,64.41
2023-05-05T02:12:38.908Z,62.90
2023-05-05T02:14:12.195Z,62.19
2023-05-05T02:15:11.185Z,59.24
2023-05-05T02:15:38.789Z,60.39
2023-05-05T02:17:11.213Z,62.48
2023-05-05T02:17:38.769Z,59.18
2023-05-05T02:18:38.715Z,59.15
2023-05-05T02:19:38.705Z,60.27
2023-05-05T02:20:38.708Z,63.29
2023-05-05T02:21:38.720Z,65.57
2023-05-05T02:22:38.685Z,60.63
2023-05-05T02:23:38.723Z,65.15
2023-05-05T02:24:38.674Z,62.25
2023-05-05T02:25:38.684Z,66.97
2023-05-05T02:26:38.672Z,67.09
2023-05-05T02:27:39.706Z,60.80
2023-05-05T02:28:38.665Z,65.92
2023-05-05T02:29:38.645Z,62.18
2023-05-05T02:30:38.651Z,62.02
2023-05-05T02:31:38.659Z,60.32
2023-05-05T02:32:38.681Z,65.75
2023-05-05T02:33:38.631Z,66.46
2023-05-05T02:34:38.620Z,61.16
2023-05-05T02:35:38.614Z,65.81
2023-05-05T02:36:38.657Z,62.54
2023-05-05T02:37:38.594Z,60.63
2023-05-05T02:38:38.609Z,67.75
2023-05-05T02:39:38.577Z,64.00
2023-05-05T02:40:38.573Z,65.60
2023-05-05T02:41:38.576Z,67.48
2023-05-05T02:42:38.600Z,62.56
2023-05-05T02:43:38.585Z,61.94
2023-05-05T02:44:38.563Z,64.92
2023-05-05T02:45:38.554Z,64.33
2023-05-05T02:46:38.573Z,64.33
2023-05-05T02:47:38.643Z,67.57
2023-05-05T02:48:38.568Z,63.13
2023-05-05T02:49:38.553Z,68.03
2023-05-05T02:50:38.535Z,66.50
2023-05-05T02:51:38.558Z,67.68
2023-05-05T02:52:38.545Z,68.51
2023-05-05T02:53:38.518Z,64.18
2023-05-05T02:54:38.566Z,67.86
2023-05-05T02:55:38.541Z,66.52
2023-05-05T02:56:38.530Z,68.84
2023-05-05T02:57:38.478Z,63.54
2023-05-05T02:58:38.850Z,68.61
2023-05-05T02:59:38.484Z,66.70
2023-05-05T03:00:38.471Z,68.67
2023-05-05T03:01:38.521Z,69.79
2023-05-05T03:02:38.506Z,64.73
2023-05-05T03:03:38.564Z,67.57
2023-05-05T03:04:38.443Z,64.19
2023-05-05T03:05:38.455Z,66.14
2023-05-05T03:06:38.426Z,70.38
2023-05-05T03:07:38.449Z,69.65
2023-05-05T03:08:38.404Z,66.30
2023-05-05T03:09:38.425Z,73.51
2023-05-05T03:10:38.380Z,71.36
2023-05-05T03:11:38.396Z,68.64
2023-05-05T03:12:38.387Z,71.75
2023-05-05T03:13:38.412Z,70.98
2023-05-05T03:14:38.392Z,68.12
2023-05-05T03:15:38.386Z,65.21
2023-05-05T03:16:38.443Z,67.48
2023-05-05T03:17:38.422Z,66.23
2023-05-05T03:18:38.364Z,72.11
2023-05-05T03:19:38.380Z,65.99
2023-05-05T03:20:38.373Z,70.11
2023-05-05T03:21:38.329Z,63.89
2023-05-05T03:22:38.351Z,70.15
2023-05-05T03:23:38.320Z,73.60
2023-05-05T03:24:38.296Z,69.63
2023-05-05T03:25:38.296Z,72.11
2023-05-05T03:26:38.287Z,69.43
2023-05-05T03:27:38.323Z,70.29
2023-05-05T03:28:38.277Z,68.57
2023-05-05T03:29:38.309Z,68.08
2023-05-05T03:30:38.279Z,72.91
2023-05-05T03:31:38.318Z,70.22
2023-05-05T03:32:38.297Z,70.43
2023-05-05T03:33:38.267Z,69.52
2023-05-05T03:34:38.244Z,66.64
2023-05-05T03:35:38.229Z,69.59
2023-05-05T03:36:38.244Z,69.36
2023-05-05T03:37:38.225Z,69.85
2023-05-05T03:38:38.239Z,68.52
2023-05-05T03:39:38.228Z,70.06
2023-05-05T03:40:44.186Z,68.53
2023-05-05T03:41:40.218Z,73.01
2023-05-05T03:42:38.195Z,70.60
2023-05-05T03:43:38.220Z,72.40
2023-05-05T03:44:38.174Z,65.85
2023-05-05T03:45:38.371Z,72.80
2023-05-05T03:46:38.185Z,68.03
2023-05-05T03:47:38.164Z,71.09
2023-05-05T03:48:38.166Z,69.78
2023-05-05T03:49:38.161Z,70.72
2023-05-05T03:50:38.144Z,68.20
2023-05-05T03:51:38.179Z,69.03
2023-05-05T03:52:38.248Z,67.97
2023-05-05T03:53:38.117Z,73.03
2023-05-05T03:54:38.785Z,74.11
2023-05-05T03:55:38.133Z,72.63
2023-05-05T03:56:38.094Z,73.10
2023-05-05T03:57:38.101Z,68.70
2023-05-05T03:58:38.106Z,68.45
2023-05-05T03:59:38.075Z,73.52
2023-05-05T04:00:38.112Z,65.11
2023-05-05T04:01:38.069Z,73.55
2023-05-05T04:02:38.204Z,70.14
2023-05-05T04:03:38.144Z,74.90
2023-05-05T04:04:38.066Z,70.53
2023-05-05T04:05:38.057Z,73.48
2023-05-05T04:06:38.033Z,71.72
2023-05-05T04:07:38.054Z,72.94
2023-05-05T04:08:38.020Z,71.88
2023-05-05T04:09:38.048Z,71.57
2023-05-05T04:10:38.017Z,68.03
2023-05-05T04:11:38.026Z,70.22
2023-05-05T04:12:38.041Z,75.72
2023-05-05T04:13:38.030Z,68.35
2023-05-05T04:14:38.005Z,74.00
2023-05-05T04:15:38.023Z,74.64
2023-05-05T04:16:38.014Z,71.06
2023-05-05T04:17:38.013Z,68.19
2023-05-05T04:18:37.975Z,75.32
2023-05-05T04:19:37.979Z,70.32
2023-05-05T04:20:37.946Z,74.07
2023-05-05T04:21:37.952Z,67.97
2023-05-05T04:22:37.935Z,73.20
2023-05-05T04:23:37.948Z,72.98
2023-05-05T04:24:37.929Z,73.74
2023-05-05T04:25:37.956Z,74.25
2023-05-05T04:26:37.940Z,64.90
2023-05-05T04:27:37.918Z,74.27
2023-05-05T04:28:37.926Z,71.93
2023-05-05T04:29:37.884Z,75.47
2023-05-05T04:30:37.939Z,71.12
2023-05-05T04:31:38.006Z,73.65
2023-05-05T04:32:37.983Z,73.12
2023-05-05T04:33:37.925Z,72.50
2023-05-05T04:34:37.901Z,71.74
2023-05-05T04:35:37.869Z,72.85
2023-05-05T04:36:37.851Z,68.13
2023-05-05T04:37:37.886Z,71.80
2023-05-05T04:38:37.933Z,74.26
2023-05-05T04:39:37.871Z,74.93
2023-05-05T04:40:37.840Z,70.47
2023-05-05T04:41:37.848Z,74.95
2023-05-05T04:42:37.915Z,72.30
2023-05-05T04:43:37.814Z,72.49
2023-05-05T04:44:37.837Z,74.77
2023-05-05T04:45:37.857Z,74.28
2023-05-05T04:46:37.830Z,74.20
2023-05-05T04:47:37.866Z,74.52
2023-05-05T04:48:38.512Z,70.98
2023-05-05T04:49:37.838Z,75.20
2023-05-05T04:50:37.778Z,71.02
2023-05-05T04:51:37.924Z,73.28
2023-05-05T04:52:37.771Z,74.90
2023-05-05T04:53:37.884Z,71.09
2023-05-05T04:54:37.768Z,75.49
2023-05-05T04:55:38.757Z,69.46
2023-05-05T04:56:37.769Z,71.59
2023-05-05T04:57:37.807Z,71.23
2023-05-05T04:58:37.753Z,70.98
2023-05-05T04:59:37.737Z,72.56
2023-05-05T05:00:37.762Z,72.21
2023-05-05T05:01:38.731Z,72.21
2023-05-05T05:02:38.866Z,72.87
2023-05-05T05:03:37.931Z,71.02
2023-05-05T05:04:37.754Z,72.61
2023-05-05T05:05:37.779Z,74.32
2023-05-05T05:06:37.756Z,76.83
2023-05-05T05:07:37.684Z,71.30
2023-05-05T05:08:37.705Z,76.25
2023-05-05T05:09:37.679Z,71.25
2023-05-05T05:10:38.702Z,72.30
2023-05-05T05:11:37.725Z,72.03
2023-05-05T05:12:37.726Z,72.86
2023-05-05T05:13:37.683Z,69.06
2023-05-05T05:14:37.632Z,69.06
2023-05-05T05:15:37.616Z,71.99
2023-05-05T05:16:37.684Z,70.38
2023-05-05T05:17:37.770Z,72.81
2023-05-05T05:18:37.651Z,77.13
2023-05-05T05:19:37.621Z,72.82
2023-05-05T05:20:37.612Z,71.34
2023-05-05T05:21:37.606Z,75.22
2023-05-05T05:22:37.583Z,73.24
2023-05-05T05:23:37.575Z,71.92
2023-05-05T05:24:37.639Z,73.68
2023-05-05T05:25:37.569Z,73.51
2023-05-05T05:26:37.594Z,72.61
2023-05-05T05:27:37.596Z,71.62
2023-05-05T05:28:37.546Z,69.72
2023-05-05T05:29:37.599Z,74.82
2023-05-05T05:30:37.583Z,70.74
2023-05-05T05:31:37.580Z,74.29
2023-05-05T05:32:37.571Z,74.49
2023-05-05T05:33:37.525Z,75.92
2023-05-05T05:34:37.535Z,74.87
2023-05-05T05:35:37.539Z,75.69
2023-05-05T05:36:37.554Z,75.44
2023-05-05T05:37:37.496Z,72.82
2023-05-05T05:38:37.509Z,74.16
2023-05-05T05:39:37.464Z,73.05
2023-05-05T05:40:37.475Z,72.31
2023-05-05T05:41:37.526Z,72.42
2023-05-05T05:42:37.538Z,73.58
2023-05-05T05:43:37.466Z,74.55
2023-05-05T05:44:37.412Z,70.02
2023-05-05T05:45:37.607Z,74.54
2023-05-05T05:46:37.466Z,77.00
2023-05-05T05:47:37.446Z,71.91
2023-05-05T05:48:38.427Z,71.17
2023-05-05T05:49:37.409Z,74.71
2023-05-05T05:50:37.394Z,70.41
2023-05-05T05:51:37.385Z,71.85
2023-05-05T05:52:37.391Z,75.98
2023-05-05T05:53:37.364Z,76.51
2023-05-05T05:54:37.360Z,71.97
2023-05-05T05:56:09.823Z,73.28
2023-05-05T05:56:37.368Z,68.69
2023-05-05T05:57:37.372Z,73.21
2023-05-05T05:58:37.385Z,73.73
2023-05-05T05:59:37.314Z,69.25
2023-05-05T06:00:37.325Z,76.27
2023-05-05T06:01:37.325Z,70.65
2023-05-05T06:02:37.464Z,73.30
2023-05-05T06:03:37.375Z,72.48
2023-05-05T06:04:37.362Z,73.33
2023-05-05T06:05:37.283Z,70.03
2023-05-05T06:06:37.299Z,74.55
2023-05-05T06:07:37.281Z,73.04
2023-05-05T06:08:37.278Z,68.95
2023-05-05T06:09:37.275Z,73.48
2023-05-05T06:10:37.253Z,71.08
2023-05-05T06:11:37.250Z,72.92
2023-05-05T06:12:37.284Z,74.69
2023-05-05T06:13:37.212Z,72.31
2023-05-05T06:14:37.240Z,72.42
2023-05-05T06:15:37.272Z,70.83
2023-05-05T06:16:37.198Z,73.76
2023-05-05T06:17:37.192Z,72.08
2023-05-05T06:18:37.205Z,74.60
2023-05-05T06:19:37.211Z,70.23
2023-05-05T06:20:37.184Z,73.22
2023-05-05T06:21:37.212Z,72.44
2023-05-05T06:22:37.173Z,73.20
2023-05-05T06:23:37.505Z,70.89
2023-05-05T06:24:37.176Z,69.63
2023-05-05T06:25:37.337Z,74.05
2023-05-05T06:26:37.144Z,71.41
2023-05-05T06:27:37.152Z,73.06
2023-05-05T06:28:37.135Z,71.02
2023-05-05T06:29:37.109Z,68.85
2023-05-05T06:30:37.101Z,73.25
2023-05-05T06:31:37.191Z,69.15
2023-05-05T06:32:37.128Z,71.93
2023-05-05T06:33:37.166Z,70.20
2023-05-05T06:34:37.079Z,67.97
2023-05-05T06:35:37.188Z,70.48
2023-05-05T06:36:37.231Z,72.15
2023-05-05T06:37:37.167Z,71.72
2023-05-05T06:38:37.048Z,73.24
2023-05-05T06:39:37.052Z,71.94
2023-05-05T06:40:37.106Z,67.42
2023-05-05T06:41:37.040Z,73.27
2023-05-05T06:42:37.064Z,72.96
2023-05-05T06:43:37.051Z,68.35
2023-05-05T06:44:37.043Z,74.03
2023-05-05T06:45:37.079Z,73.13
2023-05-05T06:46:37.016Z,73.62
2023-05-05T06:47:37.087Z,71.27
2023-05-05T06:48:37.016Z,69.24
2023-05-05T06:49:37.027Z,72.42
2023-05-05T06:50:37.170Z,69.78
2023-05-05T06:51:36.998Z,76.89
2023-05-05T06:52:36.961Z,72.47
2023-05-05T06:53:36.963Z,73.40
2023-05-05T06:54:36.963Z,72.71
2023-05-05T06:55:36.961Z,71.45
2023-05-05T06:56:36.928Z,68.31
2023-05-05T06:57:36.943Z,67.69
2023-05-05T06:58:37.043Z,72.00
2023-05-05T06:59:36.910Z,72.64
2023-05-05T07:00:37.023Z,73.10
2023-05-05T07:01:36.956Z,67.74
2023-05-05T07:02:36.924Z,75.47
2023-05-05T07:03:36.955Z,73.89
2023-05-05T07:04:36.926Z,67.96
2023-05-05T07:05:36.893Z,73.59
2023-05-05T07:06:37.041Z,73.05
2023-05-05T07:07:37.157Z,66.29
2023-05-05T07:08:36.853Z,69.38
2023-05-05T07:09:37.037Z,71.03
2023-05-05T07:10:36.857Z,72.75
2023-05-05T07:11:36.838Z,73.12
2023-05-05T07:12:36.905Z,70.61
2023-05-05T07:13:36.838Z,71.80
2023-05-05T07:14:36.849Z,70.81
2023-05-05T07:15:36.988Z,69.52
2023-05-05T07:16:36.863Z,69.64
2023-05-05T07:17:36.889Z,71.97
2023-05-05T07:18:36.824Z,72.28
2023-05-05T07:19:36.826Z,74.91
2023-05-05T07:21:10.233Z,69.99
2023-05-05T07:22:09.465Z,72.58
2023-05-05T07:22:36.796Z,76.83
2023-05-05T07:24:09.220Z,75.77
2023-05-05T07:24:36.809Z,73.90
2023-05-05T07:26:09.214Z,70.41
2023-05-05T07:27:10.376Z,75.70
2023-05-05T07:28:09.171Z,76.42
2023-05-05T07:29:09.185Z,69.97
2023-05-05T07:30:13.225Z,71.87
2023-05-05T07:30:37.740Z,70.29
2023-05-05T07:31:36.787Z,70.82
2023-05-05T07:32:36.744Z,70.96
2023-05-05T07:33:36.733Z,69.37
2023-05-05T07:34:37.986Z,68.36
2023-05-05T07:35:36.711Z,70.77
2023-05-05T07:36:36.739Z,72.78
2023-05-05T07:37:36.771Z,72.31
2023-05-05T07:38:36.703Z,73.46
2023-05-05T07:39:36.670Z,72.92
2023-05-05T07:40:36.668Z,71.54
2023-05-05T07:41:36.681Z,70.72
2023-05-05T07:42:36.689Z,74.33
2023-05-05T07:43:37.714Z,69.97
2023-05-05T07:44:36.642Z,74.42
2023-05-05T07:45:36.632Z,69.21
2023-05-05T07:46:36.817Z,72.08
2023-05-05T07:47:36.698Z,68.57
2023-05-05T07:48:36.635Z,70.90
2023-05-05T07:49:36.686Z,72.33
2023-05-05T07:50:36.654Z,72.44
2023-05-05T07:51:36.603Z,71.05
2023-05-05T07:52:47.902Z,73.62
2023-05-05T07:53:38.870Z,69.66
2023-05-05T07:54:36.918Z,74.18
2023-05-05T07:55:36.598Z,70.96
2023-05-05T07:56:36.581Z,69.32
2023-05-05T07:57:36.572Z,69.28
2023-05-05T07:58:36.608Z,69.90
2023-05-05T07:59:36.566Z,70.67
2023-05-05T08:00:36.559Z,71.04
2023-05-05T08:01:36.528Z,74.03
2023-05-05T08:02:36.631Z,66.95
2023-05-05T08:03:36.639Z,74.39
2023-05-05T08:04:36.575Z,69.40
2023-05-05T08:05:36.507Z,73.45
2023-05-05T08:06:36.516Z,71.50
2023-05-05T08:07:36.565Z,74.95
2023-05-05T08:08:36.493Z,70.45
2023-05-05T08:09:36.619Z,70.99
2023-05-05T08:10:36.498Z,72.15
2023-05-05T08:11:36.450Z,76.03
2023-05-05T08:12:36.504Z,70.96
2023-05-05T08:13:36.471Z,72.93
2023-05-05T08:14:36.468Z,73.06
2023-05-05T08:15:36.483Z,71.40
2023-05-05T08:16:36.610Z,75.18
2023-05-05T08:17:36.484Z,72.24
2023-05-05T08:18:36.433Z,72.82
2023-05-05T08:19:36.404Z,74.94
2023-05-05T08:20:36.456Z,73.74
2023-05-05T08:21:36.429Z,73.91
2023-05-05T08:22:36.437Z,73.05
2023-05-05T08:23:36.397Z,73.17
2023-05-05T08:24:36.465Z,72.21
2023-05-05T08:25:36.522Z,73.24
2023-05-05T08:26:36.401Z,71.04
2023-05-05T08:27:36.368Z,70.10
2023-05-05T08:28:36.351Z,73.59
2023-05-05T08:29:36.355Z,74.02
2023-05-05T08:30:36.365Z,71.78
2023-05-05T08:31:36.356Z,74.47
2023-05-05T08:32:36.433Z,73.77
2023-05-05T08:33:36.360Z,74.90
2023-05-05T08:34:36.363Z,68.34
2023-05-05T08:35:36.320Z,76.46
2023-05-05T08:36:36.414Z,74.37
2023-05-05T08:37:36.305Z,73.26
2023-05-05T08:38:36.304Z,70.82
2023-05-05T08:39:36.290Z,72.67
2023-05-05T08:40:36.315Z,71.07
2023-05-05T08:41:36.456Z,73.09
2023-05-05T08:42:38.585Z,74.01
2023-05-05T08:43:37.288Z,71.30
2023-05-05T08:44:36.255Z,72.47
2023-05-05T08:45:36.239Z,75.00
2023-05-05T08:46:36.293Z,73.63
2023-05-05T08:47:36.225Z,74.11
2023-05-05T08:48:36.238Z,73.16
2023-05-05T08:49:36.202Z,71.93
2023-05-05T08:50:36.215Z,74.86
2023-05-05T08:51:36.282Z,75.03
2023-05-05T08:52:36.307Z,70.81
2023-05-05T08:53:36.230Z,72.85
2023-05-05T08:54:36.209Z,74.82
2023-05-05T08:55:36.196Z,73.95
2023-05-05T08:56:36.183Z,74.52
2023-05-05T08:57:36.235Z,73.06
2023-05-05T08:58:36.156Z,73.26
2023-05-05T08:59:36.151Z,73.16
2023-05-05T09:00:36.131Z,71.36
2023-05-05T09:01:36.296Z,74.27
2023-05-05T09:02:36.264Z,75.37
2023-05-05T09:03:36.502Z,73.70
2023-05-05T09:04:36.146Z,71.20
2023-05-05T09:05:36.145Z,72.54
2023-05-05T09:06:36.163Z,71.95
2023-05-05T09:07:36.091Z,72.27
2023-05-05T09:08:36.119Z,72.01
2023-05-05T09:09:36.097Z,73.10
2023-05-05T09:10:36.098Z,72.89
2023-05-05T09:11:36.108Z,73.89
2023-05-05T09:12:36.163Z,72.36
2023-05-05T09:13:36.135Z,71.26
2023-05-05T09:14:36.088Z,75.30
2023-05-05T09:15:36.048Z,71.03
2023-05-05T09:16:36.169Z,73.62
2023-05-05T09:17:36.074Z,73.24
2023-05-05T09:18:36.024Z,72.15
2023-05-05T09:19:36.690Z,75.89
2023-05-05T09:20:36.036Z,72.46
2023-05-05T09:21:36.199Z,71.87
2023-05-05T09:22:36.082Z,73.26
2023-05-05T09:23:36.058Z,71.24
2023-05-05T09:24:36.031Z,72.72
2023-05-05T09:25:36.002Z,73.58
2023-05-05T09:26:36.014Z,72.83
2023-05-05T09:27:36.023Z,72.80
2023-05-05T09:28:36.010Z,75.66
2023-05-05T09:29:36.049Z,73.85
2023-05-05T09:30:36.026Z,73.54
2023-05-05T09:31:35.940Z,73.49
2023-05-05T09:32:35.954Z,70.99
2023-05-05T09:33:35.962Z,72.68
2023-05-05T09:34:35.972Z,74.11
2023-05-05T09:35:35.945Z,70.72
2023-05-05T09:36:35.994Z,71.81
2023-05-05T09:37:35.943Z,72.95
2023-05-05T09:38:36.063Z,72.57
2023-05-05T09:39:36.002Z,71.09
2023-05-05T09:40:35.918Z,73.54
2023-05-05T09:41:35.934Z,71.73
2023-05-05T09:42:35.901Z,73.04
2023-05-05T09:43:35.911Z,69.32
2023-05-05T09:44:35.969Z,70.30
2023-05-05T09:45:35.877Z,71.37
2023-05-05T09:46:35.903Z,72.55
2023-05-05T09:47:35.876Z,72.86
2023-05-05T09:48:35.900Z,71.44
2023-05-05T09:49:35.868Z,74.18
2023-05-05T09:50:35.864Z,71.67
2023-05-05T09:51:36.825Z,70.80
2023-05-05T09:52:35.838Z,71.58
2023-05-05T09:53:35.827Z,69.30
2023-05-05T09:54:35.825Z,72.16
2023-05-05T09:55:35.789Z,74.83
2023-05-05T09:56:35.804Z,73.95
2023-05-05T09:57:35.792Z,70.26
2023-05-05T09:58:35.827Z,72.61
2023-05-05T09:59:35.797Z,73.56
2023-05-05T10:00:35.789Z,72.04
2023-05-05T10:01:35.888Z,71.67
2023-05-05T10:02:35.793Z,69.62
2023-05-05T10:03:35.769Z,72.00
2023-05-05T10:04:35.783Z,71.78
2023-05-05T10:05:35.776Z,75.51
2023-05-05T10:06:35.761Z,72.87
2023-05-05T10:07:35.770Z,71.61
2023-05-05T10:08:35.782Z,70.98
2023-05-05T10:09:35.710Z,71.64
2023-05-05T10:10:35.712Z,71.49
2023-05-05T10:11:35.716Z,72.31
2023-05-05T10:12:35.714Z,69.59
2023-05-05T10:13:35.683Z,71.18
2023-05-05T10:14:36.665Z,71.42
2023-05-05T10:15:35.699Z,73.30
2023-05-05T10:16:35.777Z,69.91
2023-05-05T10:17:35.760Z,71.66
2023-05-05T10:18:35.740Z,73.53
2023-05-05T10:19:35.697Z,74.51
2023-05-05T10:20:35.696Z,71.74
2023-05-05T10:21:35.668Z,71.10
2023-05-05T10:22:35.754Z,72.65
2023-05-05T10:23:35.621Z,68.99
2023-05-05T10:24:35.658Z,71.92
2023-05-05T10:25:35.759Z,70.92
2023-05-05T10:26:35.660Z,72.75
2023-05-05T10:27:35.634Z,70.73
2023-05-05T10:28:35.752Z,73.73
2023-05-05T10:29:35.692Z,72.05
2023-05-05T10:30:35.621Z,72.97
2023-05-05T10:31:35.649Z,71.76
2023-05-05T10:32:56.410Z,71.11
2023-05-05T10:33:37.742Z,73.19
2023-05-05T10:34:35.761Z,73.45
2023-05-05T10:35:35.577Z,74.28
2023-05-05T10:36:35.580Z,72.02
2023-05-05T10:37:35.637Z,72.59
2023-05-05T10:38:35.583Z,71.60
2023-05-05T10:39:35.575Z,74.25
2023-05-05T10:40:35.555Z,69.32
2023-05-05T10:41:35.653Z,70.89
2023-05-05T10:42:35.541Z,71.99
2023-05-05T10:43:35.542Z,72.86
2023-05-05T10:44:36.293Z,71.49
2023-05-05T10:45:35.593Z,71.56
2023-05-05T10:46:35.645Z,71.69
2023-05-05T10:47:35.593Z,71.65
2023-05-05T10:48:35.578Z,71.66
2023-05-05T10:49:35.519Z,71.67
2023-05-05T10:50:35.536Z,71.09
2023-05-05T10:51:40.002Z,72.88
2023-05-05T10:52:37.527Z,72.75
2023-05-05T10:53:35.496Z,67.96
2023-05-05T10:54:37.843Z,67.53
2023-05-05T10:55:35.474Z,70.73
2023-05-05T10:56:35.478Z,68.98
2023-05-05T10:57:35.470Z,73.61
2023-05-05T10:58:46.918Z,71.72
2023-05-05T10:59:37.496Z,72.01
2023-05-05T11:00:35.479Z,68.69
2023-05-05T11:01:35.684Z,72.20
2023-05-05T11:02:35.492Z,72.63
2023-05-05T11:03:35.591Z,69.50
2023-05-05T11:04:35.443Z,73.34
2023-05-05T11:05:35.540Z,71.88
2023-05-05T11:06:35.455Z,72.35
2023-05-05T11:07:35.420Z,71.25
2023-05-05T11:08:35.460Z,67.72
2023-05-05T11:09:35.416Z,72.20
2023-05-05T11:10:35.464Z,70.87
2023-05-05T11:11:35.467Z,72.89
2023-05-05T11:12:37.405Z,72.96
2023-05-05T11:13:35.559Z,72.64
2023-05-05T11:14:36.424Z,72.29
2023-05-05T11:15:35.465Z,71.86
2023-05-05T11:16:35.471Z,74.83
2023-05-05T11:17:35.533Z,72.79
2023-05-05T11:18:35.451Z,75.74
2023-05-05T11:19:35.453Z,70.30
2023-05-05T11:20:35.460Z,68.11
2023-05-05T11:21:35.404Z,71.44
2023-05-05T11:22:35.371Z,72.45
2023-05-05T11:23:35.355Z,72.39
2023-05-05T11:24:35.371Z,71.09
2023-05-05T11:25:35.694Z,71.34
2023-05-05T11:26:35.347Z,69.89
2023-05-05T11:27:35.319Z,69.95
2023-05-05T11:28:35.314Z,68.78
2023-05-05T11:29:35.369Z,72.27
2023-05-05T11:30:35.330Z,71.69
2023-05-05T11:31:35.325Z,71.58
2023-05-05T11:32:35.321Z,70.91
2023-05-05T11:33:35.344Z,72.98
2023-05-05T11:34:35.315Z,71.47
2023-05-05T11:35:35.348Z,71.43
2023-05-05T11:36:35.270Z,73.57
2023-05-05T11:37:35.297Z,72.79
2023-05-05T11:38:35.284Z,72.08
2023-05-05T11:39:35.299Z,71.98
2023-05-05T11:40:35.266Z,70.54
2023-05-05T11:41:35.268Z,71.84
2023-05-05T11:42:35.245Z,74.54
2023-05-05T11:43:35.310Z,70.78
2023-05-05T11:44:35.256Z,74.08
2023-05-05T11:45:35.231Z,69.80
2023-05-05T11:46:35.331Z,72.49
2023-05-05T11:47:35.841Z,72.59
2023-05-05T11:48:35.262Z,69.27
2023-05-05T11:49:35.243Z,71.08
2023-05-05T11:50:35.235Z,73.24
2023-05-05T11:51:35.316Z,72.81
2023-05-05T11:52:35.179Z,70.90
2023-05-05T11:53:35.190Z,73.31
2023-05-05T11:54:35.324Z,73.28
2023-05-05T11:55:35.172Z,71.53
2023-05-05T11:56:35.169Z,74.04
2023-05-05T11:57:35.185Z,72.55
2023-05-05T11:58:35.152Z,72.46
2023-05-05T11:59:35.182Z,70.03
2023-05-05T12:00:35.288Z,73.63
2023-05-05T12:01:35.182Z,72.87
2023-05-05T12:02:35.322Z,73.65
2023-05-05T12:03:35.236Z,72.47
2023-05-05T12:04:35.185Z,72.93
2023-05-05T12:05:36.700Z,72.05
2023-05-05T12:06:36.155Z,72.30
2023-05-05T12:07:35.134Z,70.56
2023-05-05T12:08:35.148Z,73.67
2023-05-05T12:09:35.186Z,69.95
2023-05-05T12:10:35.120Z,71.58
2023-05-05T12:11:35.133Z,71.95
2023-05-05T12:12:35.120Z,72.41
2023-05-05T12:13:35.105Z,73.54
2023-05-05T12:14:35.108Z,74.97
2023-05-05T12:15:35.072Z,71.38
2023-05-05T12:16:35.133Z,73.44
2023-05-05T12:17:35.069Z,71.76
2023-05-05T12:18:35.180Z,69.94
2023-05-05T12:19:35.068Z,73.46
2023-05-05T12:20:35.876Z,71.87
2023-05-05T12:21:35.076Z,71.87
2023-05-05T12:22:35.042Z,70.25
2023-05-05T12:23:35.016Z,71.96
2023-05-05T12:24:35.054Z,73.23
2023-05-05T12:25:35.103Z,71.60
2023-05-05T12:26:35.058Z,72.40
2023-05-05T12:27:34.977Z,73.62
2023-05-05T12:28:35.968Z,73.20
2023-05-05T12:29:35.824Z,72.81
2023-05-05T12:30:35.057Z,73.54
2023-05-05T12:31:36.111Z,72.47
2023-05-05T12:32:35.020Z,75.30
2023-05-05T12:33:35.133Z,72.72
2023-05-05T12:34:35.233Z,70.91
2023-05-05T12:36:08.436Z,74.44
2023-05-05T12:36:34.922Z,75.62
2023-05-05T12:38:08.544Z,71.70
2023-05-05T12:38:34.909Z,75.45
2023-05-05T12:39:34.935Z,73.30
2023-05-05T12:40:34.937Z,73.52
2023-05-05T12:41:34.955Z,75.96
2023-05-05T12:43:07.335Z,73.78
2023-05-05T12:43:34.924Z,72.48
2023-05-05T12:44:34.946Z,74.99
2023-05-05T12:45:34.866Z,77.27
2023-05-05T12:46:35.025Z,74.49
2023-05-05T12:47:34.938Z,74.06
2023-05-05T12:48:34.904Z,72.94
2023-05-05T12:49:34.914Z,74.73
2023-05-05T12:50:34.894Z,77.40
2023-05-05T12:51:34.894Z,75.97
2023-05-05T12:53:08.293Z,77.12